sensor_id;sensor_type;location;lat;lon;timestamp;pressure;altitude;pressure_sealevel;temperature;humidity
46087;BME280;31824;49.648;8.640;2023-02-04T00:02:30;101659.13;;;8.07;100.00
46087;BME280;31824;49.648;8.640;2023-02-04T00:05:32;101656.38;;;8.27;100.00
46087;BME280;31824;49.648;8.640;2023-02-04T00:08:34;101660.28;;;8.31;100.00
46087;BME280;31824;49.648;8.640;2023-02-04T00:11:38;101666.13;;;8.35;100.00
46087;BME280;31824;49.648;8.640;2023-02-04T00:14:41;101673.94;;;8.28;100.00
46087;BME280;31824;49.648;8.640;2023-02-04T00:17:42;101666.69;;;8.33;100.00
46087;BME280;31824;49.648;8.640;2023-02-04T00:20:45;101679.19;;;8.28;100.00
46087;BME280;31824;49.648;8.640;2023-02-04T00:23:47;101674.47;;;8.18;100.00
46087;BME280;31824;49.648;8.640;2023-02-04T00:26:51;101685.53;;;8.23;100.00
46087;BME280;31824;49.648;8.640;2023-02-04T00:29:54;101692.44;;;8.15;100.00
46087;BME280;31824;49.648;8.640;2023-02-04T00:32:57;101690.91;;;8.10;100.00
46087;BME280;31824;49.648;8.640;2023-02-04T00:35:59;101699.72;;;8.10;100.00
46087;BME280;31824;49.648;8.640;2023-02-04T00:39:01;101703.78;;;8.08;100.00
46087;BME280;31824;49.648;8.640;2023-02-04T00:42:03;101695.91;;;8.01;100.00
46087;BME280;31824;49.648;8.640;2023-02-04T00:45:09;101698.72;;;7.96;100.00
46087;BME280;31824;49.648;8.640;2023-02-04T00:48:12;101705.78;;;7.97;100.00
46087;BME280;31824;49.648;8.640;2023-02-04T00:51:14;101701.25;;;7.88;100.00
46087;BME280;31824;49.648;8.640;2023-02-04T00:54:16;101712.44;;;7.80;100.00
46087;BME280;31824;49.648;8.640;2023-02-04T00:57:17;101702.75;;;7.86;100.00
46087;BME280;31824;49.648;8.640;2023-02-04T01:00:21;101707.41;;;7.82;100.00
46087;BME280;31824;49.648;8.640;2023-02-04T01:03:23;101714.34;;;7.88;100.00
46087;BME280;31824;49.648;8.640;2023-02-04T01:06:26;101723.28;;;7.83;100.00
46087;BME280;31824;49.648;8.640;2023-02-04T01:09:30;101722.72;;;7.78;100.00
46087;BME280;31824;49.648;8.640;2023-02-04T01:12:32;101731.63;;;7.73;100.00
46087;BME280;31824;49.648;8.640;2023-02-04T01:15:35;101731.25;;;7.70;100.00
46087;BME280;31824;49.648;8.640;2023-02-04T01:18:37;101722.25;;;7.68;100.00
46087;BME280;31824;49.648;8.640;2023-02-04T01:21:39;101727.44;;;7.61;100.00
46087;BME280;31824;49.648;8.640;2023-02-04T01:24:44;101736.50;;;7.70;100.00
46087;BME280;31824;49.648;8.640;2023-02-04T01:28:05;101729.34;;;7.62;100.00
46087;BME280;31824;49.648;8.640;2023-02-04T01:31:08;101744.22;;;7.56;100.00
46087;BME280;31824;49.648;8.640;2023-02-04T01:34:10;101751.53;;;7.58;100.00
46087;BME280;31824;49.648;8.640;2023-02-04T01:37:12;101757.50;;;7.57;100.00
46087;BME280;31824;49.648;8.640;2023-02-04T01:40:15;101753.75;;;7.55;100.00
46087;BME280;31824;49.648;8.640;2023-02-04T01:43:18;101756.66;;;7.44;100.00
46087;BME280;31824;49.648;8.640;2023-02-04T01:46:25;101749.94;;;7.46;100.00
46087;BME280;31824;49.648;8.640;2023-02-04T01:49:27;101754.06;;;7.44;100.00
46087;BME280;31824;49.648;8.640;2023-02-04T01:52:33;101762.09;;;7.46;100.00
46087;BME280;31824;49.648;8.640;2023-02-04T01:55:35;101761.13;;;7.45;100.00
46087;BME280;31824;49.648;8.640;2023-02-04T01:58:37;101760.56;;;7.40;100.00
46087;BME280;31824;49.648;8.640;2023-02-04T02:01:42;101766.94;;;7.42;100.00
46087;BME280;31824;49.648;8.640;2023-02-04T02:04:45;101757.94;;;7.40;100.00
46087;BME280;31824;49.648;8.640;2023-02-04T02:07:47;101750.25;;;7.35;100.00
46087;BME280;31824;49.648;8.640;2023-02-04T02:10:49;101756.19;;;7.34;100.00
46087;BME280;31824;49.648;8.640;2023-02-04T02:13:51;101752.56;;;7.26;100.00
46087;BME280;31824;49.648;8.640;2023-02-04T02:16:55;101751.84;;;7.27;100.00
46087;BME280;31824;49.648;8.640;2023-02-04T02:19:57;101753.09;;;7.23;100.00
46087;BME280;31824;49.648;8.640;2023-02-04T02:23:05;101747.69;;;7.22;100.00
46087;BME280;31824;49.648;8.640;2023-02-04T02:26:18;101752.72;;;7.20;100.00
46087;BME280;31824;49.648;8.640;2023-02-04T02:29:21;101749.38;;;7.21;100.00
46087;BME280;31824;49.648;8.640;2023-02-04T02:32:24;101764.47;;;7.17;100.00
46087;BME280;31824;49.648;8.640;2023-02-04T02:35:36;101767.81;;;7.16;100.00
46087;BME280;31824;49.648;8.640;2023-02-04T02:38:39;101765.94;;;7.15;100.00
46087;BME280;31824;49.648;8.640;2023-02-04T02:41:42;101769.41;;;7.08;100.00
46087;BME280;31824;49.648;8.640;2023-02-04T02:44:45;101770.03;;;7.13;100.00
46087;BME280;31824;49.648;8.640;2023-02-04T02:47:48;101773.81;;;7.22;100.00
46087;BME280;31824;49.648;8.640;2023-02-04T02:50:50;101758.41;;;7.10;100.00
46087;BME280;31824;49.648;8.640;2023-02-04T02:53:55;101769.41;;;7.08;100.00
46087;BME280;31824;49.648;8.640;2023-02-04T02:56:58;101763.78;;;7.05;100.00
46087;BME280;31824;49.648;8.640;2023-02-04T03:00:00;101763.97;;;7.06;100.00
46087;BME280;31824;49.648;8.640;2023-02-04T03:03:06;101771.09;;;7.07;100.00
46087;BME280;31824;49.648;8.640;2023-02-04T03:06:12;101773.38;;;7.12;100.00
46087;BME280;31824;49.648;8.640;2023-02-04T03:09:15;101780.19;;;7.04;100.00
46087;BME280;31824;49.648;8.640;2023-02-04T03:12:22;101776.56;;;6.96;100.00
46087;BME280;31824;49.648;8.640;2023-02-04T03:15:24;101781.56;;;7.07;100.00
46087;BME280;31824;49.648;8.640;2023-02-04T03:18:26;101787.09;;;7.03;100.00
46087;BME280;31824;49.648;8.640;2023-02-04T03:21:28;101805.94;;;7.01;100.00
46087;BME280;31824;49.648;8.640;2023-02-04T03:24:31;101812.22;;;6.96;100.00
46087;BME280;31824;49.648;8.640;2023-02-04T03:27:34;101824.03;;;6.99;100.00
46087;BME280;31824;49.648;8.640;2023-02-04T03:30:36;101813.31;;;7.10;100.00
46087;BME280;31824;49.648;8.640;2023-02-04T03:33:38;101820.88;;;7.02;100.00
46087;BME280;31824;49.648;8.640;2023-02-04T03:36:40;101832.53;;;7.11;100.00
46087;BME280;31824;49.648;8.640;2023-02-04T03:39:42;101837.66;;;7.17;100.00
46087;BME280;31824;49.648;8.640;2023-02-04T03:42:45;101841.25;;;7.24;100.00
46087;BME280;31824;49.648;8.640;2023-02-04T03:45:47;101841.88;;;7.29;100.00
46087;BME280;31824;49.648;8.640;2023-02-04T03:48:49;101838.44;;;7.23;100.00
46087;BME280;31824;49.648;8.640;2023-02-04T03:51:50;101845.06;;;7.14;100.00
46087;BME280;31824;49.648;8.640;2023-02-04T03:54:52;101835.91;;;7.10;100.00
46087;BME280;31824;49.648;8.640;2023-02-04T03:57:55;101838.34;;;6.96;100.00
46087;BME280;31824;49.648;8.640;2023-02-04T04:00:57;101844.81;;;6.92;100.00
46087;BME280;31824;49.648;8.640;2023-02-04T04:03:59;101848.09;;;6.84;100.00
46087;BME280;31824;49.648;8.640;2023-02-04T04:07:01;101853.56;;;6.72;100.00
46087;BME280;31824;49.648;8.640;2023-02-04T04:10:03;101867.03;;;6.75;100.00
46087;BME280;31824;49.648;8.640;2023-02-04T04:13:06;101865.47;;;6.70;100.00
46087;BME280;31824;49.648;8.640;2023-02-04T04:16:08;101870.59;;;6.76;100.00
46087;BME280;31824;49.648;8.640;2023-02-04T04:19:09;101879.34;;;6.76;100.00
46087;BME280;31824;49.648;8.640;2023-02-04T04:22:11;101887.78;;;6.81;100.00
46087;BME280;31824;49.648;8.640;2023-02-04T04:25:13;101880.19;;;6.83;100.00
46087;BME280;31824;49.648;8.640;2023-02-04T04:28:16;101879.03;;;6.81;100.00
46087;BME280;31824;49.648;8.640;2023-02-04T04:31:18;101889.69;;;6.82;100.00
46087;BME280;31824;49.648;8.640;2023-02-04T04:34:20;101889.75;;;6.89;100.00
46087;BME280;31824;49.648;8.640;2023-02-04T04:37:22;101893.47;;;6.84;100.00
46087;BME280;31824;49.648;8.640;2023-02-04T04:40:24;101902.22;;;6.85;100.00
46087;BME280;31824;49.648;8.640;2023-02-04T04:43:27;101913.09;;;6.75;100.00
46087;BME280;31824;49.648;8.640;2023-02-04T04:46:28;101910.78;;;6.84;100.00
46087;BME280;31824;49.648;8.640;2023-02-04T04:49:30;101909.75;;;6.89;100.00
46087;BME280;31824;49.648;8.640;2023-02-04T04:52:32;101914.25;;;6.90;100.00
46087;BME280;31824;49.648;8.640;2023-02-04T04:55:34;101904.44;;;6.82;100.00
46087;BME280;31824;49.648;8.640;2023-02-04T04:58:37;101900.97;;;6.88;100.00
46087;BME280;31824;49.648;8.640;2023-02-04T05:01:38;101888.75;;;6.82;100.00
46087;BME280;31824;49.648;8.640;2023-02-04T05:04:40;101898.47;;;6.83;100.00
46087;BME280;31824;49.648;8.640;2023-02-04T05:07:42;101895.34;;;6.72;100.00
46087;BME280;31824;49.648;8.640;2023-02-04T05:10:44;101895.25;;;6.65;100.00
46087;BME280;31824;49.648;8.640;2023-02-04T05:13:47;101903.63;;;6.63;100.00
46087;BME280;31824;49.648;8.640;2023-02-04T05:16:48;101907.28;;;6.57;100.00
46087;BME280;31824;49.648;8.640;2023-02-04T05:19:50;101911.84;;;6.66;100.00
46087;BME280;31824;49.648;8.640;2023-02-04T05:22:52;101917.84;;;6.52;100.00
46087;BME280;31824;49.648;8.640;2023-02-04T05:25:56;101906.56;;;6.58;100.00
46087;BME280;31824;49.648;8.640;2023-02-04T05:28:59;101914.19;;;6.57;100.00
46087;BME280;31824;49.648;8.640;2023-02-04T05:32:01;101912.09;;;6.54;100.00
46087;BME280;31824;49.648;8.640;2023-02-04T05:35:04;101920.75;;;6.48;100.00
46087;BME280;31824;49.648;8.640;2023-02-04T05:38:06;101927.41;;;6.46;100.00
46087;BME280;31824;49.648;8.640;2023-02-04T05:41:08;101922.84;;;6.50;100.00
46087;BME280;31824;49.648;8.640;2023-02-04T05:44:31;101934.44;;;6.52;100.00
46087;BME280;31824;49.648;8.640;2023-02-04T05:47:33;101930.56;;;6.43;100.00
46087;BME280;31824;49.648;8.640;2023-02-04T05:50:34;101939.75;;;6.47;100.00
46087;BME280;31824;49.648;8.640;2023-02-04T05:53:42;101937.47;;;6.42;100.00
46087;BME280;31824;49.648;8.640;2023-02-04T05:56:44;101936.81;;;6.25;100.00
46087;BME280;31824;49.648;8.640;2023-02-04T05:59:47;101940.44;;;6.20;100.00
46087;BME280;31824;49.648;8.640;2023-02-04T06:02:49;101934.00;;;6.11;100.00
46087;BME280;31824;49.648;8.640;2023-02-04T06:05:51;101944.69;;;6.06;100.00
46087;BME280;31824;49.648;8.640;2023-02-04T06:08:52;101938.59;;;6.19;100.00
46087;BME280;31824;49.648;8.640;2023-02-04T06:11:54;101952.06;;;6.22;100.00
46087;BME280;31824;49.648;8.640;2023-02-04T06:14:57;101960.09;;;6.11;100.00
46087;BME280;31824;49.648;8.640;2023-02-04T06:17:59;101962.84;;;5.99;100.00
46087;BME280;31824;49.648;8.640;2023-02-04T06:21:01;101968.53;;;5.97;100.00
46087;BME280;31824;49.648;8.640;2023-02-04T06:24:05;101971.66;;;5.94;100.00
46087;BME280;31824;49.648;8.640;2023-02-04T06:27:07;101978.16;;;5.90;100.00
46087;BME280;31824;49.648;8.640;2023-02-04T06:30:11;101980.47;;;5.76;100.00
46087;BME280;31824;49.648;8.640;2023-02-04T06:33:13;101990.50;;;5.73;100.00
46087;BME280;31824;49.648;8.640;2023-02-04T06:36:15;101988.19;;;5.69;100.00
46087;BME280;31824;49.648;8.640;2023-02-04T06:39:17;101985.16;;;5.66;100.00
46087;BME280;31824;49.648;8.640;2023-02-04T06:42:19;101993.31;;;5.56;100.00
46087;BME280;31824;49.648;8.640;2023-02-04T06:45:22;101990.56;;;5.49;100.00
46087;BME280;31824;49.648;8.640;2023-02-04T06:48:23;102003.09;;;5.33;100.00
46087;BME280;31824;49.648;8.640;2023-02-04T06:51:25;102001.88;;;5.55;100.00
46087;BME280;31824;49.648;8.640;2023-02-04T06:54:28;101999.13;;;5.48;100.00
46087;BME280;31824;49.648;8.640;2023-02-04T06:57:29;102002.53;;;5.60;100.00
46087;BME280;31824;49.648;8.640;2023-02-04T07:00:33;102009.53;;;5.66;100.00
46087;BME280;31824;49.648;8.640;2023-02-04T07:03:35;102013.59;;;5.64;100.00
46087;BME280;31824;49.648;8.640;2023-02-04T07:06:37;102021.94;;;5.62;100.00
46087;BME280;31824;49.648;8.640;2023-02-04T07:09:39;102015.22;;;5.51;100.00
46087;BME280;31824;49.648;8.640;2023-02-04T07:12:41;102027.06;;;5.49;100.00
46087;BME280;31824;49.648;8.640;2023-02-04T07:15:44;102026.16;;;5.48;100.00
46087;BME280;31824;49.648;8.640;2023-02-04T07:18:46;102036.06;;;5.51;100.00
46087;BME280;31824;49.648;8.640;2023-02-04T07:21:47;102041.09;;;5.44;100.00
46087;BME280;31824;49.648;8.640;2023-02-04T07:24:49;102049.41;;;5.47;100.00
46087;BME280;31824;49.648;8.640;2023-02-04T07:27:51;102051.13;;;5.59;100.00
46087;BME280;31824;49.648;8.640;2023-02-04T07:30:54;102061.41;;;5.70;100.00
46087;BME280;31824;49.648;8.640;2023-02-04T07:33:56;102062.03;;;5.75;100.00
46087;BME280;31824;49.648;8.640;2023-02-04T07:36:58;102080.50;;;5.77;100.00
46087;BME280;31824;49.648;8.640;2023-02-04T07:40:00;102079.03;;;5.66;100.00
46087;BME280;31824;49.648;8.640;2023-02-04T07:43:01;102074.38;;;5.76;100.00
46087;BME280;31824;49.648;8.640;2023-02-04T07:46:05;102085.38;;;5.86;100.00
46087;BME280;31824;49.648;8.640;2023-02-04T07:49:07;102087.53;;;5.83;100.00
46087;BME280;31824;49.648;8.640;2023-02-04T07:52:08;102096.97;;;5.88;100.00
46087;BME280;31824;49.648;8.640;2023-02-04T07:55:10;102099.56;;;5.88;100.00
46087;BME280;31824;49.648;8.640;2023-02-04T07:58:12;102103.94;;;5.82;100.00
46087;BME280;31824;49.648;8.640;2023-02-04T08:01:15;102116.22;;;5.83;100.00
46087;BME280;31824;49.648;8.640;2023-02-04T08:04:17;102123.00;;;5.75;100.00
46087;BME280;31824;49.648;8.640;2023-02-04T08:07:19;102115.00;;;5.87;100.00
46087;BME280;31824;49.648;8.640;2023-02-04T08:10:21;102120.09;;;5.80;100.00
46087;BME280;31824;49.648;8.640;2023-02-04T08:13:23;102120.03;;;5.85;100.00
46087;BME280;31824;49.648;8.640;2023-02-04T08:16:27;102117.34;;;5.91;100.00
46087;BME280;31824;49.648;8.640;2023-02-04T08:19:29;102114.91;;;5.98;100.00
46087;BME280;31824;49.648;8.640;2023-02-04T08:22:30;102124.16;;;5.96;100.00
46087;BME280;31824;49.648;8.640;2023-02-04T08:25:32;102138.09;;;6.02;100.00
46087;BME280;31824;49.648;8.640;2023-02-04T08:28:34;102144.19;;;6.08;100.00
46087;BME280;31824;49.648;8.640;2023-02-04T08:31:37;102141.56;;;6.27;100.00
46087;BME280;31824;49.648;8.640;2023-02-04T08:34:39;102139.94;;;6.40;100.00
46087;BME280;31824;49.648;8.640;2023-02-04T08:37:41;102145.41;;;6.42;100.00
46087;BME280;31824;49.648;8.640;2023-02-04T08:40:43;102144.50;;;6.36;100.00
46087;BME280;31824;49.648;8.640;2023-02-04T08:43:45;102151.66;;;6.50;100.00
46087;BME280;31824;49.648;8.640;2023-02-04T08:46:48;102145.16;;;6.40;100.00
46087;BME280;31824;49.648;8.640;2023-02-04T08:49:50;102154.88;;;6.41;100.00
46087;BME280;31824;49.648;8.640;2023-02-04T08:52:51;102168.94;;;6.55;100.00
46087;BME280;31824;49.648;8.640;2023-02-04T08:55:53;102168.75;;;6.66;100.00
46087;BME280;31824;49.648;8.640;2023-02-04T08:58:55;102166.44;;;6.62;100.00
46087;BME280;31824;49.648;8.640;2023-02-04T09:01:58;102172.31;;;6.67;100.00
46087;BME280;31824;49.648;8.640;2023-02-04T09:05:00;102174.44;;;6.69;100.00
46087;BME280;31824;49.648;8.640;2023-02-04T09:08:02;102168.69;;;6.72;100.00
46087;BME280;31824;49.648;8.640;2023-02-04T09:11:04;102169.09;;;6.75;100.00
46087;BME280;31824;49.648;8.640;2023-02-04T09:14:06;102179.50;;;6.93;100.00
46087;BME280;31824;49.648;8.640;2023-02-04T09:17:09;102176.59;;;7.23;100.00
46087;BME280;31824;49.648;8.640;2023-02-04T09:20:11;102178.94;;;7.40;100.00
46087;BME280;31824;49.648;8.640;2023-02-04T09:23:13;102181.22;;;7.57;100.00
46087;BME280;31824;49.648;8.640;2023-02-04T09:26:15;102194.09;;;7.69;100.00
46087;BME280;31824;49.648;8.640;2023-02-04T09:29:17;102183.31;;;7.47;100.00
46087;BME280;31824;49.648;8.640;2023-02-04T09:32:21;102175.25;;;7.58;100.00
46087;BME280;31824;49.648;8.640;2023-02-04T09:35:22;102179.22;;;7.49;100.00
46087;BME280;31824;49.648;8.640;2023-02-04T09:38:24;102169.00;;;7.38;100.00
46087;BME280;31824;49.648;8.640;2023-02-04T09:41:26;102179.03;;;7.60;100.00
46087;BME280;31824;49.648;8.640;2023-02-04T09:44:28;102184.16;;;7.66;100.00
46087;BME280;31824;49.648;8.640;2023-02-04T09:47:31;102190.44;;;7.61;100.00
46087;BME280;31824;49.648;8.640;2023-02-04T09:50:33;102194.00;;;7.74;100.00
46087;BME280;31824;49.648;8.640;2023-02-04T09:53:36;102202.78;;;7.88;100.00
46087;BME280;31824;49.648;8.640;2023-02-04T09:56:40;102204.44;;;7.87;100.00
46087;BME280;31824;49.648;8.640;2023-02-04T09:59:42;102219.59;;;7.90;100.00
46087;BME280;31824;49.648;8.640;2023-02-04T10:02:46;102217.50;;;8.00;100.00
46087;BME280;31824;49.648;8.640;2023-02-04T10:05:49;102216.59;;;8.45;100.00
46087;BME280;31824;49.648;8.640;2023-02-04T10:08:51;102226.19;;;8.65;100.00
46087;BME280;31824;49.648;8.640;2023-02-04T10:11:53;102226.38;;;8.21;100.00
46087;BME280;31824;49.648;8.640;2023-02-04T10:14:55;102221.13;;;8.34;100.00
46087;BME280;31824;49.648;8.640;2023-02-04T10:18:01;102217.16;;;8.17;100.00
46087;BME280;31824;49.648;8.640;2023-02-04T10:21:12;102221.06;;;8.14;100.00
46087;BME280;31824;49.648;8.640;2023-02-04T10:24:17;102228.50;;;7.98;100.00
46087;BME280;31824;49.648;8.640;2023-02-04T10:27:19;102228.63;;;7.79;100.00
46087;BME280;31824;49.648;8.640;2023-02-04T10:30:23;102234.19;;;7.88;100.00
46087;BME280;31824;49.648;8.640;2023-02-04T10:33:28;102235.66;;;7.73;100.00
46087;BME280;31824;49.648;8.640;2023-02-04T10:36:30;102240.44;;;7.83;100.00
46087;BME280;31824;49.648;8.640;2023-02-04T10:39:41;102241.28;;;8.15;100.00
46087;BME280;31824;49.648;8.640;2023-02-04T10:42:47;102239.97;;;8.31;100.00
46087;BME280;31824;49.648;8.640;2023-02-04T10:45:55;102238.22;;;8.11;100.00
46087;BME280;31824;49.648;8.640;2023-02-04T10:48:59;102234.09;;;8.26;100.00
46087;BME280;31824;49.648;8.640;2023-02-04T10:52:03;102247.06;;;7.86;100.00
46087;BME280;31824;49.648;8.640;2023-02-04T10:55:16;102243.50;;;7.73;100.00
46087;BME280;31824;49.648;8.640;2023-02-04T10:58:23;102242.44;;;7.91;100.00
46087;BME280;31824;49.648;8.640;2023-02-04T11:01:28;102235.53;;;8.04;100.00
46087;BME280;31824;49.648;8.640;2023-02-04T11:04:31;102239.53;;;8.28;100.00
46087;BME280;31824;49.648;8.640;2023-02-04T11:07:33;102236.97;;;8.02;100.00
46087;BME280;31824;49.648;8.640;2023-02-04T11:10:35;102230.94;;;7.96;100.00
46087;BME280;31824;49.648;8.640;2023-02-04T11:13:41;102227.59;;;7.97;100.00
46087;BME280;31824;49.648;8.640;2023-02-04T11:16:46;102235.13;;;8.01;100.00
46087;BME280;31824;49.648;8.640;2023-02-04T11:19:50;102227.16;;;8.07;100.00
46087;BME280;31824;49.648;8.640;2023-02-04T11:22:51;102221.91;;;7.94;100.00
46087;BME280;31824;49.648;8.640;2023-02-04T11:26:04;102229.03;;;7.95;100.00
46087;BME280;31824;49.648;8.640;2023-02-04T11:29:27;102231.16;;;8.43;100.00
46087;BME280;31824;49.648;8.640;2023-02-04T11:32:33;102241.47;;;8.62;100.00
46087;BME280;31824;49.648;8.640;2023-02-04T11:35:37;102240.28;;;8.93;100.00
46087;BME280;31824;49.648;8.640;2023-02-04T11:38:43;102234.28;;;8.41;100.00
46087;BME280;31824;49.648;8.640;2023-02-04T11:41:46;102231.81;;;8.68;100.00
46087;BME280;31824;49.648;8.640;2023-02-04T11:44:49;102239.19;;;9.38;100.00
46087;BME280;31824;49.648;8.640;2023-02-04T11:47:52;102238.69;;;9.21;100.00
46087;BME280;31824;49.648;8.640;2023-02-04T11:50:57;102236.50;;;9.31;100.00
46087;BME280;31824;49.648;8.640;2023-02-04T11:53:59;102230.59;;;9.19;100.00
46087;BME280;31824;49.648;8.640;2023-02-04T11:57:02;102237.16;;;8.95;100.00
46087;BME280;31824;49.648;8.640;2023-02-04T12:00:04;102231.81;;;9.28;100.00
46087;BME280;31824;49.648;8.640;2023-02-04T12:03:26;102229.72;;;9.26;100.00
46087;BME280;31824;49.648;8.640;2023-02-04T12:06:33;102229.19;;;9.28;100.00
46087;BME280;31824;49.648;8.640;2023-02-04T12:09:45;102229.66;;;9.19;100.00
46087;BME280;31824;49.648;8.640;2023-02-04T12:12:48;102237.63;;;8.86;100.00
46087;BME280;31824;49.648;8.640;2023-02-04T12:15:54;102234.31;;;8.94;100.00
46087;BME280;31824;49.648;8.640;2023-02-04T12:18:58;102236.00;;;8.73;100.00
46087;BME280;31824;49.648;8.640;2023-02-04T12:22:01;102228.84;;;8.52;100.00
46087;BME280;31824;49.648;8.640;2023-02-04T12:25:03;102231.56;;;8.59;100.00
46087;BME280;31824;49.648;8.640;2023-02-04T12:28:04;102229.50;;;9.44;100.00
46087;BME280;31824;49.648;8.640;2023-02-04T12:31:06;102238.84;;;9.97;100.00
46087;BME280;31824;49.648;8.640;2023-02-04T12:34:08;102242.94;;;10.29;100.00
46087;BME280;31824;49.648;8.640;2023-02-04T12:37:11;102242.34;;;9.90;100.00
46087;BME280;31824;49.648;8.640;2023-02-04T12:40:14;102237.91;;;9.69;100.00
46087;BME280;31824;49.648;8.640;2023-02-04T12:43:16;102243.28;;;10.74;100.00
46087;BME280;31824;49.648;8.640;2023-02-04T12:46:18;102249.91;;;10.36;100.00
46087;BME280;31824;49.648;8.640;2023-02-04T12:49:20;102249.69;;;9.93;100.00
46087;BME280;31824;49.648;8.640;2023-02-04T12:52:23;102244.44;;;9.38;100.00
46087;BME280;31824;49.648;8.640;2023-02-04T12:55:26;102246.91;;;8.97;100.00
46087;BME280;31824;49.648;8.640;2023-02-04T12:58:28;102256.06;;;9.95;100.00
46087;BME280;31824;49.648;8.640;2023-02-04T13:01:30;102251.41;;;9.72;100.00
46087;BME280;31824;49.648;8.640;2023-02-04T13:04:32;102252.28;;;8.91;100.00
46087;BME280;31824;49.648;8.640;2023-02-04T13:07:35;102248.44;;;8.82;100.00
46087;BME280;31824;49.648;8.640;2023-02-04T13:10:37;102246.94;;;8.84;100.00
46087;BME280;31824;49.648;8.640;2023-02-04T13:13:39;102240.38;;;9.48;100.00
46087;BME280;31824;49.648;8.640;2023-02-04T13:16:41;102244.97;;;10.81;100.00
46087;BME280;31824;49.648;8.640;2023-02-04T13:19:43;102237.88;;;11.09;100.00
46087;BME280;31824;49.648;8.640;2023-02-04T13:22:46;102249.50;;;9.64;100.00
46087;BME280;31824;49.648;8.640;2023-02-04T13:25:47;102247.91;;;9.79;100.00
46087;BME280;31824;49.648;8.640;2023-02-04T13:28:49;102245.78;;;11.30;100.00
46087;BME280;31824;49.648;8.640;2023-02-04T13:31:51;102246.06;;;11.84;100.00
46087;BME280;31824;49.648;8.640;2023-02-04T13:34:53;102241.63;;;10.89;100.00
46087;BME280;31824;49.648;8.640;2023-02-04T13:37:56;102249.25;;;9.83;100.00
46087;BME280;31824;49.648;8.640;2023-02-04T13:40:58;102242.38;;;9.36;100.00
46087;BME280;31824;49.648;8.640;2023-02-04T13:43:59;102244.47;;;11.12;100.00
46087;BME280;31824;49.648;8.640;2023-02-04T13:47:01;102241.50;;;10.11;100.00
46087;BME280;31824;49.648;8.640;2023-02-04T13:50:04;102243.84;;;9.13;100.00
46087;BME280;31824;49.648;8.640;2023-02-04T13:53:07;102260.28;;;10.49;100.00
46087;BME280;31824;49.648;8.640;2023-02-04T13:56:09;102259.69;;;10.37;100.00
46087;BME280;31824;49.648;8.640;2023-02-04T13:59:10;102263.13;;;9.34;100.00
46087;BME280;31824;49.648;8.640;2023-02-04T14:02:12;102260.19;;;9.93;100.00
46087;BME280;31824;49.648;8.640;2023-02-04T14:05:14;102263.50;;;8.90;100.00
46087;BME280;31824;49.648;8.640;2023-02-04T14:08:18;102258.53;;;11.63;100.00
46087;BME280;31824;49.648;8.640;2023-02-04T14:11:19;102261.16;;;11.99;100.00
46087;BME280;31824;49.648;8.640;2023-02-04T14:14:21;102267.09;;;12.58;100.00
46087;BME280;31824;49.648;8.640;2023-02-04T14:17:23;102261.13;;;13.12;100.00
46087;BME280;31824;49.648;8.640;2023-02-04T14:20:24;102257.59;;;13.28;100.00
46087;BME280;31824;49.648;8.640;2023-02-04T14:23:27;102261.69;;;12.87;100.00
46087;BME280;31824;49.648;8.640;2023-02-04T14:26:29;102254.78;;;11.47;100.00
46087;BME280;31824;49.648;8.640;2023-02-04T14:29:31;102261.69;;;10.25;100.00
46087;BME280;31824;49.648;8.640;2023-02-04T14:32:33;102251.97;;;9.97;100.00
46087;BME280;31824;49.648;8.640;2023-02-04T14:35:35;102245.00;;;9.63;100.00
46087;BME280;31824;49.648;8.640;2023-02-04T14:38:39;102247.63;;;9.36;100.00
46087;BME280;31824;49.648;8.640;2023-02-04T14:41:41;102244.47;;;9.66;100.00
46087;BME280;31824;49.648;8.640;2023-02-04T14:44:43;102250.69;;;9.26;100.00
46087;BME280;31824;49.648;8.640;2023-02-04T14:48:05;102256.63;;;9.38;100.00
46087;BME280;31824;49.648;8.640;2023-02-04T14:51:07;102259.53;;;9.26;100.00
46087;BME280;31824;49.648;8.640;2023-02-04T14:54:10;102261.53;;;8.82;100.00
46087;BME280;31824;49.648;8.640;2023-02-04T14:57:12;102258.38;;;8.84;100.00
46087;BME280;31824;49.648;8.640;2023-02-04T15:00:14;102255.97;;;8.86;100.00
46087;BME280;31824;49.648;8.640;2023-02-04T15:03:16;102249.16;;;8.81;100.00
46087;BME280;31824;49.648;8.640;2023-02-04T15:06:18;102262.34;;;8.55;100.00
46087;BME280;31824;49.648;8.640;2023-02-04T15:09:21;102258.63;;;8.53;100.00
46087;BME280;31824;49.648;8.640;2023-02-04T15:12:23;102267.53;;;8.48;100.00
46087;BME280;31824;49.648;8.640;2023-02-04T15:15:25;102268.31;;;8.54;100.00
46087;BME280;31824;49.648;8.640;2023-02-04T15:18:27;102273.16;;;8.51;100.00
46087;BME280;31824;49.648;8.640;2023-02-04T15:21:29;102265.66;;;8.34;100.00
46087;BME280;31824;49.648;8.640;2023-02-04T15:24:33;102265.84;;;8.35;100.00
46087;BME280;31824;49.648;8.640;2023-02-04T15:27:34;102264.88;;;8.35;100.00
46087;BME280;31824;49.648;8.640;2023-02-04T15:30:36;102261.56;;;8.23;100.00
46087;BME280;31824;49.648;8.640;2023-02-04T15:33:38;102260.31;;;8.14;100.00
46087;BME280;31824;49.648;8.640;2023-02-04T15:36:40;102262.75;;;8.12;100.00
46087;BME280;31824;49.648;8.640;2023-02-04T15:39:43;102273.53;;;7.95;100.00
46087;BME280;31824;49.648;8.640;2023-02-04T15:42:45;102266.97;;;7.91;100.00
46087;BME280;31824;49.648;8.640;2023-02-04T15:45:47;102276.97;;;7.88;100.00
46087;BME280;31824;49.648;8.640;2023-02-04T15:48:49;102273.44;;;7.88;100.00
46087;BME280;31824;49.648;8.640;2023-02-04T15:51:50;102277.81;;;7.69;100.00
46087;BME280;31824;49.648;8.640;2023-02-04T15:54:53;102279.06;;;7.65;100.00
46087;BME280;31824;49.648;8.640;2023-02-04T15:57:55;102278.34;;;7.66;100.00